createdAt,value
2018-12-09T00:00:22.688Z,2.42
2018-12-09T00:02:51.759Z,2.39
2018-12-09T00:05:20.603Z,2.38
2018-12-09T00:07:49.573Z,2.44
2018-12-09T00:10:18.413Z,2.51
2018-12-09T00:12:47.435Z,2.58
2018-12-09T00:15:16.515Z,2.59
2018-12-09T00:17:45.482Z,2.57
2018-12-09T00:20:14.727Z,2.61
2018-12-09T00:22:43.548Z,2.63
2018-12-09T00:25:12.777Z,2.54
2018-12-09T00:27:41.878Z,2.66
2018-12-09T00:30:11.186Z,2.73
2018-12-09T00:32:40.115Z,2.78
2018-12-09T00:35:09.269Z,2.76
2018-12-09T00:37:38.467Z,2.72
2018-12-09T00:40:07.653Z,2.68
2018-12-09T00:42:43.445Z,2.72
2018-12-09T00:45:08.306Z,2.76
2018-12-09T00:47:38.234Z,2.70
2018-12-09T00:50:07.704Z,2.73
2018-12-09T00:52:37.647Z,2.74
2018-12-09T00:55:07.048Z,2.72
2018-12-09T00:57:36.151Z,2.75
2018-12-09T01:00:05.972Z,2.37
2018-12-09T01:02:35.687Z,2.27
2018-12-09T01:05:05.250Z,2.01
2018-12-09T01:07:34.382Z,1.97
2018-12-09T01:10:03.654Z,2.10
2018-12-09T01:12:32.470Z,2.43
2018-12-09T01:15:01.567Z,2.43
2018-12-09T01:17:30.500Z,2.29
2018-12-09T01:19:59.659Z,2.42
2018-12-09T01:22:28.865Z,2.51
2018-12-09T01:24:57.944Z,2.56
2018-12-09T01:27:26.988Z,2.67
2018-12-09T01:29:55.827Z,2.70
2018-12-09T01:32:24.879Z,2.61
2018-12-09T01:34:53.638Z,2.57
2018-12-09T01:37:23.114Z,2.67
2018-12-09T01:39:52.743Z,2.73
2018-12-09T01:42:22.023Z,2.61
2018-12-09T01:44:51.713Z,2.50
2018-12-09T01:47:20.679Z,2.48
2018-12-09T01:49:50.104Z,2.65
2018-12-09T01:52:19.327Z,2.75
2018-12-09T01:54:48.311Z,2.80
2018-12-09T01:57:17.832Z,2.87
2018-12-09T01:59:47.018Z,2.93
2018-12-09T02:02:16.159Z,2.94
2018-12-09T02:04:45.023Z,2.84
2018-12-09T02:07:14.252Z,2.82
2018-12-09T02:09:43.614Z,2.61
2018-12-09T02:12:12.844Z,2.47
2018-12-09T02:14:42.014Z,2.47
2018-12-09T02:17:11.202Z,2.56
2018-12-09T02:19:40.403Z,2.67
2018-12-09T02:22:10.029Z,2.74
2018-12-09T02:24:38.919Z,2.76
2018-12-09T02:27:07.722Z,2.73
2018-12-09T02:29:37.811Z,2.74
2018-12-09T02:32:07.079Z,2.80
2018-12-09T02:34:36.059Z,2.85
2018-12-09T02:37:05.107Z,2.81
2018-12-09T02:39:34.036Z,2.78
2018-12-09T02:42:03.304Z,2.83
2018-12-09T02:44:32.397Z,2.77
2018-12-09T02:47:01.260Z,2.80
2018-12-09T02:49:30.374Z,2.82
2018-12-09T02:51:59.665Z,2.82
2018-12-09T02:54:28.669Z,2.81
2018-12-09T02:56:57.870Z,2.73
2018-12-09T02:59:26.763Z,2.69
2018-12-09T03:01:55.877Z,2.69
2018-12-09T03:04:25.359Z,2.68
2018-12-09T03:06:54.464Z,2.86
2018-12-09T03:09:23.754Z,2.95
2018-12-09T03:11:52.594Z,3.03
2018-12-09T03:14:21.688Z,3.07
2018-12-09T03:16:50.568Z,3.09
2018-12-09T03:19:20.552Z,3.07
2018-12-09T03:21:49.755Z,3.06
2018-12-09T03:24:19.164Z,2.96
2018-12-09T03:26:48.039Z,2.93
2018-12-09T03:29:16.958Z,3.01
2018-12-09T03:31:46.259Z,2.96
2018-12-09T03:34:15.436Z,2.94
2018-12-09T03:36:44.391Z,2.96
2018-12-09T03:39:13.627Z,2.95
2018-12-09T03:41:42.552Z,3.08
2018-12-09T03:44:11.823Z,3.13
2018-12-09T03:46:41.101Z,3.13
2018-12-09T03:49:10.241Z,3.10
2018-12-09T03:51:39.424Z,3.09
2018-12-09T03:54:08.395Z,3.12
2018-12-09T03:56:37.204Z,3.12
2018-12-09T03:59:06.396Z,3.18
2018-12-09T04:01:35.418Z,3.18
2018-12-09T04:04:04.676Z,3.15
2018-12-09T04:06:33.548Z,3.19
2018-12-09T04:09:02.822Z,3.21
2018-12-09T04:11:31.808Z,3.18
2018-12-09T04:14:00.593Z,3.13
2018-12-09T04:16:29.663Z,3.08
2018-12-09T04:18:58.865Z,3.11
2018-12-09T04:21:28.064Z,3.14
2018-12-09T04:23:57.251Z,3.14
2018-12-09T04:26:26.465Z,3.09
2018-12-09T04:28:55.365Z,3.10
2018-12-09T04:31:24.198Z,3.15
2018-12-09T04:33:53.066Z,3.14
2018-12-09T04:36:22.527Z,3.19
2018-12-09T04:38:51.309Z,3.17
2018-12-09T04:41:20.224Z,3.18
2018-12-09T04:43:49.442Z,3.17
2018-12-09T04:46:18.497Z,3.04
2018-12-09T04:48:47.307Z,3.16
2018-12-09T04:51:16.151Z,3.17
2018-12-09T04:53:45.248Z,3.20
2018-12-09T04:56:14.277Z,3.09
2018-12-09T04:58:57.412Z,3.02
2018-12-09T05:01:26.223Z,2.99
2018-12-09T05:03:55.040Z,2.97
2018-12-09T05:06:24.278Z,2.76
2018-12-09T05:08:53.204Z,2.55
2018-12-09T05:11:22.336Z,2.68
2018-12-09T05:13:51.581Z,2.65
2018-12-09T05:16:21.075Z,2.58
2018-12-09T05:18:50.274Z,2.57
2018-12-09T05:21:19.105Z,2.44
2018-12-09T05:23:48.756Z,2.50
2018-12-09T05:26:17.595Z,2.64
2018-12-09T05:28:46.400Z,2.78
2018-12-09T05:31:15.276Z,2.88
2018-12-09T05:33:44.188Z,2.95
2018-12-09T05:36:13.070Z,2.97
2018-12-09T05:38:42.470Z,2.98
2018-12-09T05:41:11.457Z,2.97
2018-12-09T05:43:40.392Z,2.95
2018-12-09T05:46:09.532Z,3.04
2018-12-09T05:48:38.693Z,3.12
2018-12-09T05:51:07.655Z,3.15
2018-12-09T05:53:36.523Z,3.11
2018-12-09T05:56:05.787Z,3.08
2018-12-09T05:58:34.892Z,2.92
2018-12-09T06:01:04.000Z,3.02
2018-12-09T06:03:33.174Z,2.99
2018-12-09T06:06:02.982Z,3.08
2018-12-09T06:08:32.552Z,2.88
2018-12-09T06:11:01.359Z,2.76
2018-12-09T06:13:31.040Z,2.79
2018-12-09T06:16:00.191Z,2.91
2018-12-09T06:18:29.057Z,3.04
2018-12-09T06:20:57.875Z,3.22
2018-12-09T06:23:27.518Z,3.41
2018-12-09T06:25:56.335Z,3.58
2018-12-09T06:28:25.558Z,3.67
2018-12-09T06:30:54.394Z,3.68
2018-12-09T06:33:23.843Z,3.79
2018-12-09T06:36:00.097Z,3.87
2018-12-09T06:38:29.323Z,3.89
2018-12-09T06:40:58.176Z,3.95
2018-12-09T06:43:27.279Z,4.00
2018-12-09T06:45:56.816Z,4.09
2018-12-09T06:48:25.916Z,4.00
2018-12-09T06:50:54.813Z,4.14
2018-12-09T06:53:23.911Z,4.16
2018-12-09T06:55:52.707Z,4.24
2018-12-09T06:58:21.974Z,4.27
2018-12-09T07:00:51.080Z,4.31
2018-12-09T07:03:20.172Z,4.35
2018-12-09T07:05:49.216Z,4.38
2018-12-09T07:08:18.477Z,4.48
2018-12-09T07:10:48.115Z,4.58
2018-12-09T07:13:17.290Z,4.62
2018-12-09T07:15:47.005Z,4.68
2018-12-09T07:18:17.119Z,4.74
2018-12-09T07:20:45.972Z,4.80
2018-12-09T07:23:15.478Z,4.97
2018-12-09T07:25:45.016Z,5.08
2018-12-09T07:28:14.304Z,5.20
2018-12-09T07:30:44.644Z,5.36
2018-12-09T07:33:13.813Z,5.45
2018-12-09T07:35:43.128Z,5.49
2018-12-09T07:38:12.227Z,5.53
2018-12-09T07:40:41.115Z,5.68
2018-12-09T07:43:10.005Z,5.86
2018-12-09T07:45:39.206Z,6.03
2018-12-09T07:48:08.108Z,6.16
2018-12-09T07:50:37.304Z,6.28
2018-12-09T07:53:06.714Z,6.41
2018-12-09T07:55:35.575Z,6.50
2018-12-09T07:58:05.110Z,6.55
2018-12-09T08:00:34.299Z,6.56
2018-12-09T08:03:03.122Z,6.65
2018-12-09T08:05:32.180Z,6.74
2018-12-09T08:08:00.999Z,6.79
2018-12-09T08:10:29.799Z,6.88
2018-12-09T08:12:58.954Z,6.91
2018-12-09T08:15:27.754Z,7.00
2018-12-09T08:17:56.773Z,7.01
2018-12-09T08:20:26.102Z,7.00
2018-12-09T08:22:55.337Z,7.03
2018-12-09T08:25:24.456Z,7.05
2018-12-09T08:27:53.528Z,7.07
2018-12-09T08:30:22.631Z,7.09
2018-12-09T08:32:51.707Z,7.15
2018-12-09T08:35:20.828Z,7.14
2018-12-09T08:37:49.613Z,7.15
2018-12-09T08:40:18.655Z,7.12
2018-12-09T08:42:47.798Z,7.09
2018-12-09T08:45:16.894Z,7.04
2018-12-09T08:47:45.671Z,7.03
2018-12-09T08:50:14.542Z,7.05
2018-12-09T08:52:43.352Z,7.09
2018-12-09T08:55:12.286Z,7.11
2018-12-09T08:57:41.281Z,7.19
2018-12-09T09:00:10.086Z,7.29
2018-12-09T09:02:39.240Z,7.42
2018-12-09T09:05:08.443Z,7.59
2018-12-09T09:07:37.464Z,7.66
2018-12-09T09:10:07.137Z,7.83
2018-12-09T09:12:36.086Z,7.98
2018-12-09T09:15:05.947Z,8.15
2018-12-09T09:17:35.039Z,8.29
2018-12-09T09:20:04.561Z,8.35
2018-12-09T09:22:33.762Z,8.41
2018-12-09T09:25:02.963Z,8.38
2018-12-09T09:27:31.834Z,8.51
2018-12-09T09:30:01.154Z,8.55
2018-12-09T09:32:30.344Z,8.57
2018-12-09T09:34:59.851Z,8.54
2018-12-09T09:37:28.714Z,8.69
2018-12-09T09:39:58.324Z,8.75
2018-12-09T09:42:27.540Z,8.88
2018-12-09T09:44:57.342Z,8.89
2018-12-09T09:47:26.136Z,8.89
2018-12-09T09:50:01.851Z,8.85
2018-12-09T09:52:31.188Z,8.75
2018-12-09T09:55:00.436Z,8.54
2018-12-09T09:57:29.500Z,8.53
2018-12-09T09:59:58.689Z,8.65
2018-12-09T10:02:27.476Z,8.84
2018-12-09T10:04:56.439Z,8.93
2018-12-09T10:07:25.694Z,8.83
2018-12-09T10:09:54.613Z,8.65
2018-12-09T10:12:23.859Z,8.62
2018-12-09T10:14:52.796Z,8.73
2018-12-09T10:17:21.961Z,8.81
2018-12-09T10:19:51.089Z,8.76
2018-12-09T10:22:20.312Z,8.78
2018-12-09T10:24:49.381Z,8.81
2018-12-09T10:27:18.629Z,8.85
2018-12-09T10:29:47.572Z,8.88
2018-12-09T10:32:16.624Z,8.83
2018-12-09T10:34:46.275Z,8.80
2018-12-09T10:37:15.090Z,8.86
2018-12-09T10:39:45.079Z,8.95
2018-12-09T10:42:14.693Z,9.03
2018-12-09T10:44:43.851Z,8.98
2018-12-09T10:47:13.378Z,9.01
2018-12-09T10:49:42.258Z,9.09
2018-12-09T10:52:11.908Z,9.26
2018-12-09T10:54:40.946Z,9.39
2018-12-09T10:57:16.469Z,9.48
2018-12-09T10:59:45.561Z,9.52
2018-12-09T11:02:19.860Z,9.63
2018-12-09T11:04:49.205Z,9.75
2018-12-09T11:07:18.401Z,9.79
2018-12-09T11:09:47.649Z,9.69
2018-12-09T11:12:16.493Z,9.85
2018-12-09T11:14:45.601Z,9.84
2018-12-09T11:17:14.702Z,9.94
2018-12-09T11:19:43.799Z,9.89
2018-12-09T11:22:12.922Z,9.86
2018-12-09T11:24:42.190Z,9.85
2018-12-09T11:27:11.286Z,9.95
2018-12-09T11:29:40.167Z,9.89
2018-12-09T11:32:09.447Z,9.70
2018-12-09T11:34:38.371Z,9.57
2018-12-09T11:37:07.699Z,9.64
2018-12-09T11:39:37.181Z,9.73
2018-12-09T11:42:06.258Z,9.74
2018-12-09T11:44:35.583Z,9.72
2018-12-09T11:47:04.526Z,9.70
2018-12-09T11:49:33.452Z,9.67
2018-12-09T11:52:02.797Z,9.75
2018-12-09T11:54:32.034Z,9.85
2018-12-09T11:57:01.190Z,9.95
2018-12-09T11:59:30.045Z,10.00
2018-12-09T12:01:59.575Z,10.06
2018-12-09T12:04:28.776Z,10.08
2018-12-09T12:06:57.791Z,10.11
2018-12-09T12:09:26.887Z,10.13
2018-12-09T12:11:55.983Z,10.17
2018-12-09T12:14:25.131Z,10.26
2018-12-09T12:16:54.193Z,10.31
2018-12-09T12:19:23.320Z,10.35
2018-12-09T12:21:52.541Z,10.46
2018-12-09T12:24:21.570Z,10.46
2018-12-09T12:26:50.613Z,10.47
2018-12-09T12:29:19.451Z,10.53
2018-12-09T12:31:48.344Z,10.53
2018-12-09T12:34:17.487Z,10.39
2018-12-09T12:36:46.427Z,10.38
2018-12-09T12:39:15.296Z,10.37
2018-12-09T12:41:44.067Z,10.33
2018-12-09T12:44:13.198Z,10.34
2018-12-09T12:46:42.087Z,10.35
2018-12-09T12:49:11.241Z,10.39
2018-12-09T12:51:40.507Z,10.37
2018-12-09T12:54:09.669Z,10.32
2018-12-09T12:56:38.483Z,10.24
2018-12-09T12:59:08.039Z,10.16
2018-12-09T13:01:37.139Z,10.06
2018-12-09T13:04:07.043Z,9.99
2018-12-09T13:06:36.558Z,9.96
2018-12-09T13:09:07.845Z,9.93
2018-12-09T13:11:36.707Z,9.91
2018-12-09T13:14:05.998Z,9.88
2018-12-09T13:16:35.024Z,9.90
2018-12-09T13:19:04.068Z,9.86
2018-12-09T13:21:33.166Z,9.86
2018-12-09T13:24:02.264Z,9.88
2018-12-09T13:26:31.453Z,9.89
2018-12-09T13:29:00.612Z,9.91
2018-12-09T13:31:29.747Z,9.93
2018-12-09T13:33:58.618Z,9.93
2018-12-09T13:36:27.438Z,9.94
2018-12-09T13:38:57.013Z,9.97
2018-12-09T13:41:26.134Z,9.99
2018-12-09T13:43:55.213Z,10.02
2018-12-09T13:46:24.353Z,10.05
2018-12-09T13:48:53.325Z,10.10
2018-12-09T13:51:22.432Z,10.14
2018-12-09T13:53:51.527Z,10.15
2018-12-09T13:56:21.028Z,10.18
2018-12-09T13:58:49.879Z,10.18
2018-12-09T14:01:19.039Z,10.20
2018-12-09T14:03:48.111Z,10.20
2018-12-09T14:06:17.099Z,10.17
2018-12-09T14:08:46.300Z,10.13
2018-12-09T14:11:16.523Z,10.03
2018-12-09T14:13:45.633Z,9.96
2018-12-09T14:16:14.597Z,9.93
2018-12-09T14:18:43.911Z,9.90
2018-12-09T14:21:14.336Z,9.85
2018-12-09T14:23:43.573Z,9.77
2018-12-09T14:26:12.993Z,9.71
2018-12-09T14:28:41.929Z,9.60
2018-12-09T14:31:10.788Z,9.64
2018-12-09T14:33:40.024Z,9.55
2018-12-09T14:36:09.225Z,9.48
2018-12-09T14:38:38.066Z,9.38
2018-12-09T14:41:06.875Z,9.28
2018-12-09T14:43:35.915Z,9.18
2018-12-09T14:46:05.034Z,9.08
2018-12-09T14:48:34.082Z,8.98
2018-12-09T14:51:02.943Z,8.83
2018-12-09T14:53:32.150Z,8.74
2018-12-09T14:56:01.106Z,8.76
2018-12-09T14:58:30.268Z,8.66
2018-12-09T15:00:59.463Z,8.62
2018-12-09T15:03:28.315Z,8.62
2018-12-09T15:05:57.156Z,8.60
2018-12-09T15:08:26.034Z,8.54
2018-12-09T15:10:55.581Z,8.55
2018-12-09T15:13:24.522Z,8.63
2018-12-09T15:15:54.659Z,8.57
2018-12-09T15:18:23.854Z,8.54
2018-12-09T15:20:52.952Z,8.46
2018-12-09T15:23:21.798Z,8.23
2018-12-09T15:25:50.939Z,8.09
2018-12-09T15:28:20.349Z,7.89
2018-12-09T15:30:49.613Z,7.76
2018-12-09T15:33:18.429Z,7.76
2018-12-09T15:35:47.446Z,7.65
2018-12-09T15:38:16.614Z,7.56
2018-12-09T15:40:45.668Z,7.43
2018-12-09T15:43:15.333Z,7.25
2018-12-09T15:45:44.646Z,7.18
2018-12-09T15:48:13.466Z,7.19
2018-12-09T15:50:42.487Z,7.16
2018-12-09T15:53:11.651Z,7.14
2018-12-09T15:55:41.264Z,7.12
2018-12-09T15:58:11.034Z,7.00
2018-12-09T16:00:46.208Z,6.90
2018-12-09T16:03:15.451Z,6.88
2018-12-09T16:05:44.719Z,6.74
2018-12-09T16:08:14.121Z,6.66
2018-12-09T16:10:43.531Z,6.72
2018-12-09T16:13:12.664Z,6.65
2018-12-09T16:15:41.639Z,6.68
2018-12-09T16:18:10.747Z,6.56
2018-12-09T16:20:39.947Z,6.62
2018-12-09T16:23:08.980Z,6.57
2018-12-09T16:25:38.428Z,6.53
2018-12-09T16:28:07.232Z,6.41
2018-12-09T16:30:36.282Z,6.45
2018-12-09T16:33:05.414Z,6.32
2018-12-09T16:35:34.633Z,6.41
2018-12-09T16:38:03.820Z,6.61
2018-12-09T16:40:32.879Z,6.46
2018-12-09T16:43:02.108Z,6.37
2018-12-09T16:45:31.953Z,6.34
2018-12-09T16:48:01.203Z,6.30
2018-12-09T16:50:30.424Z,6.23
2018-12-09T16:52:59.647Z,6.25
2018-12-09T16:55:29.060Z,6.30
2018-12-09T16:57:58.273Z,6.29
2018-12-09T17:00:27.431Z,6.10
2018-12-09T17:02:56.222Z,6.13
2018-12-09T17:05:25.588Z,6.24
2018-12-09T17:07:54.659Z,6.29
2018-12-09T17:10:23.925Z,6.29
2018-12-09T17:12:52.721Z,6.39
2018-12-09T17:15:22.071Z,6.42
2018-12-09T17:17:51.562Z,6.43
2018-12-09T17:20:20.859Z,6.38
2018-12-09T17:22:51.002Z,6.33
2018-12-09T17:28:01.333Z,6.22
2018-12-09T17:30:30.450Z,6.19
2018-12-09T17:33:00.673Z,6.16
2018-12-09T17:35:29.988Z,6.08
2018-12-09T17:37:59.470Z,6.07
2018-12-09T17:40:28.775Z,6.03
2018-12-09T17:42:59.122Z,6.02
2018-12-09T17:45:28.432Z,5.97
2018-12-09T17:47:57.668Z,5.91
2018-12-09T17:50:26.942Z,5.94
2018-12-09T17:52:56.026Z,5.93
2018-12-09T17:55:25.004Z,5.99
2018-12-09T17:57:54.421Z,5.95
2018-12-09T18:00:23.326Z,5.84
2018-12-09T18:02:52.568Z,5.84
2018-12-09T18:05:21.602Z,5.86
2018-12-09T18:07:50.543Z,5.83
2018-12-09T18:10:19.422Z,5.73
2018-12-09T18:12:48.685Z,5.68
2018-12-09T18:15:21.198Z,5.71
2018-12-09T18:17:50.601Z,5.67
2018-12-09T18:20:19.845Z,5.67
2018-12-09T18:22:49.324Z,5.61
2018-12-09T18:25:18.561Z,5.57
2018-12-09T18:27:47.780Z,5.48
2018-12-09T18:30:16.747Z,5.55
2018-12-09T18:32:46.667Z,5.55
2018-12-09T18:35:15.821Z,5.47
2018-12-09T18:37:46.523Z,5.54
2018-12-09T18:40:16.033Z,5.54
2018-12-09T18:42:45.090Z,5.56
2018-12-09T18:45:14.365Z,5.49
2018-12-09T18:47:43.574Z,5.39
2018-12-09T18:50:12.879Z,5.44
2018-12-09T18:52:42.077Z,5.34
2018-12-09T18:55:11.244Z,5.34
2018-12-09T18:57:40.342Z,5.25
2018-12-09T19:00:09.788Z,5.17
2018-12-09T19:02:39.083Z,5.14
2018-12-09T19:05:08.383Z,5.15
2018-12-09T19:07:38.715Z,5.03
2018-12-09T19:10:09.247Z,4.96
2018-12-09T19:12:38.545Z,4.88
2018-12-09T19:15:07.690Z,4.83
2018-12-09T19:17:37.036Z,4.79
2018-12-09T19:20:06.376Z,4.70
2018-12-09T19:22:35.325Z,4.67
2018-12-09T19:25:04.640Z,4.57
2018-12-09T19:27:33.927Z,4.52
2018-12-09T19:30:03.116Z,4.52
2018-12-09T19:32:31.958Z,4.49
2018-12-09T19:35:00.824Z,4.45
2018-12-09T19:37:30.091Z,4.45
2018-12-09T19:39:58.860Z,4.43
2018-12-09T19:42:27.903Z,4.37
2018-12-09T19:44:57.055Z,4.35
2018-12-09T19:47:26.166Z,4.31
2018-12-09T19:49:55.821Z,4.25
2018-12-09T19:52:25.010Z,4.22
2018-12-09T19:54:54.600Z,4.14
2018-12-09T19:57:23.897Z,4.13
2018-12-09T19:59:53.113Z,4.10
2018-12-09T20:02:22.915Z,4.06
2018-12-09T20:04:51.909Z,4.02
2018-12-09T20:07:21.368Z,3.92
2018-12-09T20:09:50.532Z,3.88
2018-12-09T20:12:19.669Z,3.89
2018-12-09T20:14:48.495Z,3.91
2018-12-09T20:17:17.334Z,3.95
2018-12-09T20:19:46.440Z,3.97
2018-12-09T20:22:15.373Z,4.02
2018-12-09T20:24:44.725Z,4.09
2018-12-09T20:27:13.634Z,4.09
2018-12-09T20:29:42.463Z,4.04
2018-12-09T20:32:11.482Z,3.98
2018-12-09T20:34:40.397Z,3.99
2018-12-09T20:37:09.310Z,4.00
2018-12-09T20:39:38.270Z,4.01
2018-12-09T20:42:07.307Z,3.99
2018-12-09T20:44:36.352Z,3.92
2018-12-09T20:47:05.608Z,3.92
2018-12-09T20:49:34.671Z,3.98
2018-12-09T20:52:03.776Z,3.97
2018-12-09T20:54:32.800Z,3.90
2018-12-09T20:57:02.270Z,3.80
2018-12-09T20:59:31.158Z,3.80
2018-12-09T21:02:00.300Z,3.73
2018-12-09T21:04:30.040Z,3.64
2018-12-09T21:06:59.003Z,3.48
2018-12-09T21:09:28.982Z,3.31
2018-12-09T21:11:58.117Z,3.25
2018-12-09T21:14:27.381Z,3.38
2018-12-09T21:16:56.325Z,3.46
2018-12-09T21:19:25.290Z,3.39
2018-12-09T21:21:54.206Z,3.24
2018-12-09T21:24:25.931Z,3.31
2018-12-09T21:26:54.691Z,3.34
2018-12-09T21:29:23.731Z,3.30
2018-12-09T21:31:53.073Z,3.23
2018-12-09T21:34:22.104Z,3.14
2018-12-09T21:36:51.271Z,3.16
2018-12-09T21:39:20.300Z,3.21
2018-12-09T21:41:49.462Z,3.18
2018-12-09T21:44:18.552Z,3.05
2018-12-09T21:46:47.677Z,2.89
2018-12-09T21:49:16.801Z,2.91
2018-12-09T21:51:45.794Z,2.94
2018-12-09T21:54:15.057Z,3.06
2018-12-09T21:56:44.455Z,3.01
2018-12-09T21:59:13.372Z,2.94
2018-12-09T22:01:42.554Z,3.11
2018-12-09T22:04:11.685Z,3.11
2018-12-09T22:06:40.577Z,3.13
2018-12-09T22:09:09.758Z,3.04
2018-12-09T22:11:39.041Z,2.95
2018-12-09T22:14:08.553Z,2.89
2018-12-09T22:16:38.044Z,2.94
2018-12-09T22:19:07.348Z,2.97
2018-12-09T22:21:37.051Z,2.92
2018-12-09T22:24:06.379Z,2.89
2018-12-09T22:26:35.479Z,2.96
2018-12-09T22:29:04.399Z,3.00
2018-12-09T22:31:33.646Z,3.04
2018-12-09T22:34:02.437Z,2.99
2018-12-09T22:36:31.309Z,3.01
2018-12-09T22:39:00.501Z,3.05
2018-12-09T22:41:29.507Z,3.05
2018-12-09T22:43:58.758Z,3.06
2018-12-09T22:46:27.510Z,2.96
2018-12-09T22:48:57.079Z,2.88
2018-12-09T22:51:26.316Z,2.93
2018-12-09T22:53:55.263Z,2.95
2018-12-09T22:56:24.095Z,2.94
2018-12-09T22:58:53.292Z,2.85
2018-12-09T23:01:23.008Z,2.76
2018-12-09T23:03:52.199Z,2.78
2018-12-09T23:06:21.399Z,2.82
2018-12-09T23:08:50.590Z,2.86
2018-12-09T23:11:19.719Z,2.84
2018-12-09T23:13:48.803Z,2.74
2018-12-09T23:16:17.639Z,2.81
2018-12-09T23:18:46.672Z,2.89
2018-12-09T23:21:15.795Z,2.95
2018-12-09T23:23:44.835Z,2.91
2018-12-09T23:26:13.812Z,2.87
2018-12-09T23:28:43.263Z,2.95
2018-12-09T23:31:12.094Z,2.96
2018-12-09T23:33:41.063Z,2.99
2018-12-09T23:36:10.243Z,2.98
2018-12-09T23:38:39.176Z,2.98
2018-12-09T23:41:08.344Z,3.11
2018-12-09T23:43:37.488Z,3.13
2018-12-09T23:46:06.618Z,3.09
2018-12-09T23:48:35.644Z,3.01
2018-12-09T23:51:04.937Z,2.93
2018-12-09T23:53:33.971Z,2.88
2018-12-09T23:56:03.007Z,2.87
2018-12-09T23:58:32.034Z,2.84
